sensor_id;sensor_type;location;lat;lon;timestamp;pressure;altitude;pressure_sealevel;temperature;humidity
80747;BME280;70144;50.218;14.322;2023-10-31T00:01:50;97055.91;;;11.79;87.42
80747;BME280;70144;50.218;14.322;2023-10-31T00:04:15;97062.19;;;11.80;87.65
80747;BME280;70144;50.218;14.322;2023-10-31T00:06:41;97063.78;;;11.81;87.14
80747;BME280;70144;50.218;14.322;2023-10-31T00:09:06;97060.59;;;11.79;87.53
80747;BME280;70144;50.218;14.322;2023-10-31T00:11:32;97063.09;;;11.84;87.38
80747;BME280;70144;50.218;14.322;2023-10-31T00:13:57;97061.41;;;11.79;87.81
80747;BME280;70144;50.218;14.322;2023-10-31T00:16:22;97057.75;;;11.75;87.71
80747;BME280;70144;50.218;14.322;2023-10-31T00:18:48;97060.00;;;11.73;87.61
80747;BME280;70144;50.218;14.322;2023-10-31T00:21:14;97055.78;;;11.76;87.61
80747;BME280;70144;50.218;14.322;2023-10-31T00:23:44;97051.00;;;11.73;87.53
80747;BME280;70144;50.218;14.322;2023-10-31T00:26:09;97050.31;;;11.76;87.45
80747;BME280;70144;50.218;14.322;2023-10-31T00:28:35;97047.78;;;11.71;87.50
80747;BME280;70144;50.218;14.322;2023-10-31T00:31:00;97044.47;;;11.77;86.75
80747;BME280;70144;50.218;14.322;2023-10-31T00:33:26;97049.41;;;11.72;87.67
80747;BME280;70144;50.218;14.322;2023-10-31T00:35:51;97066.63;;;11.72;87.59
80747;BME280;70144;50.218;14.322;2023-10-31T00:38:16;97076.63;;;11.68;87.67
80747;BME280;70144;50.218;14.322;2023-10-31T00:40:41;97089.72;;;11.71;87.37
80747;BME280;70144;50.218;14.322;2023-10-31T00:43:07;97092.56;;;11.75;87.67
80747;BME280;70144;50.218;14.322;2023-10-31T00:45:32;97096.09;;;11.75;87.69
80747;BME280;70144;50.218;14.322;2023-10-31T00:47:57;97100.31;;;11.73;88.89
80747;BME280;70144;50.218;14.322;2023-10-31T00:50:23;97106.03;;;11.80;88.31
80747;BME280;70144;50.218;14.322;2023-10-31T00:52:48;97119.50;;;11.85;87.47
80747;BME280;70144;50.218;14.322;2023-10-31T00:55:14;97111.88;;;11.90;87.03
80747;BME280;70144;50.218;14.322;2023-10-31T00:57:39;97118.50;;;11.89;88.65
80747;BME280;70144;50.218;14.322;2023-10-31T01:00:05;97114.75;;;11.94;86.85
80747;BME280;70144;50.218;14.322;2023-10-31T01:02:31;97117.69;;;11.89;87.85
80747;BME280;70144;50.218;14.322;2023-10-31T01:04:56;97110.84;;;11.95;87.22
80747;BME280;70144;50.218;14.322;2023-10-31T01:07:21;97092.91;;;11.97;86.96
80747;BME280;70144;50.218;14.322;2023-10-31T01:09:47;97083.56;;;11.86;87.93
80747;BME280;70144;50.218;14.322;2023-10-31T01:12:12;97099.41;;;11.81;88.81
80747;BME280;70144;50.218;14.322;2023-10-31T01:14:38;97093.38;;;11.75;87.75
80747;BME280;70144;50.218;14.322;2023-10-31T01:17:03;97097.69;;;11.76;89.19
80747;BME280;70144;50.218;14.322;2023-10-31T01:19:29;97100.34;;;11.85;88.58
80747;BME280;70144;50.218;14.322;2023-10-31T01:21:54;97087.09;;;11.99;88.74
80747;BME280;70144;50.218;14.322;2023-10-31T01:24:19;97071.09;;;12.01;86.06
80747;BME280;70144;50.218;14.322;2023-10-31T01:26:45;97076.91;;;11.99;87.76
80747;BME280;70144;50.218;14.322;2023-10-31T01:29:10;97071.09;;;11.89;88.75
80747;BME280;70144;50.218;14.322;2023-10-31T01:31:35;97069.38;;;11.84;88.40
80747;BME280;70144;50.218;14.322;2023-10-31T01:34:02;97070.50;;;11.83;88.16
80747;BME280;70144;50.218;14.322;2023-10-31T01:36:27;97060.72;;;11.82;87.89
80747;BME280;70144;50.218;14.322;2023-10-31T01:38:53;97070.88;;;11.82;88.02
80747;BME280;70144;50.218;14.322;2023-10-31T01:41:18;97068.13;;;11.82;88.00
80747;BME280;70144;50.218;14.322;2023-10-31T01:43:44;97069.16;;;11.77;88.14
80747;BME280;70144;50.218;14.322;2023-10-31T01:46:09;97073.72;;;11.73;88.25
80747;BME280;70144;50.218;14.322;2023-10-31T01:48:35;97081.25;;;11.76;88.12
80747;BME280;70144;50.218;14.322;2023-10-31T01:51:02;97082.16;;;11.80;87.51
80747;BME280;70144;50.218;14.322;2023-10-31T01:53:31;97100.22;;;11.81;88.50
80747;BME280;70144;50.218;14.322;2023-10-31T01:55:58;97088.13;;;11.82;88.18
80747;BME280;70144;50.218;14.322;2023-10-31T01:58:29;97090.63;;;11.87;87.08
80747;BME280;70144;50.218;14.322;2023-10-31T02:00:55;97087.44;;;11.85;87.63
80747;BME280;70144;50.218;14.322;2023-10-31T02:03:21;97085.94;;;11.88;87.38
80747;BME280;70144;50.218;14.322;2023-10-31T02:05:46;97084.22;;;11.83;88.33
80747;BME280;70144;50.218;14.322;2023-10-31T02:08:12;97096.22;;;11.79;89.10
80747;BME280;70144;50.218;14.322;2023-10-31T02:10:38;97091.31;;;11.84;89.42
80747;BME280;70144;50.218;14.322;2023-10-31T02:13:13;97094.16;;;12.00;88.71
80747;BME280;70144;50.218;14.322;2023-10-31T02:15:39;97099.53;;;11.96;88.38
80747;BME280;70144;50.218;14.322;2023-10-31T02:18:05;97094.06;;;11.96;88.04
80747;BME280;70144;50.218;14.322;2023-10-31T02:20:31;97116.22;;;12.03;87.89
80747;BME280;70144;50.218;14.322;2023-10-31T02:22:56;97112.91;;;11.98;88.04
80747;BME280;70144;50.218;14.322;2023-10-31T02:25:22;97127.41;;;11.98;87.99
80747;BME280;70144;50.218;14.322;2023-10-31T02:27:47;97128.56;;;11.97;88.13
80747;BME280;70144;50.218;14.322;2023-10-31T02:30:13;97122.50;;;11.92;88.54
80747;BME280;70144;50.218;14.322;2023-10-31T02:32:39;97134.72;;;11.94;87.40
80747;BME280;70144;50.218;14.322;2023-10-31T02:35:05;97130.81;;;11.95;88.03
80747;BME280;70144;50.218;14.322;2023-10-31T02:37:30;97137.47;;;11.94;87.96
80747;BME280;70144;50.218;14.322;2023-10-31T02:39:56;97134.72;;;11.94;88.44
80747;BME280;70144;50.218;14.322;2023-10-31T02:42:21;97135.63;;;11.98;88.31
80747;BME280;70144;50.218;14.322;2023-10-31T02:44:47;97139.06;;;11.95;88.97
80747;BME280;70144;50.218;14.322;2023-10-31T02:47:12;97141.56;;;12.00;87.46
80747;BME280;70144;50.218;14.322;2023-10-31T02:49:37;97142.72;;;11.99;88.00
80747;BME280;70144;50.218;14.322;2023-10-31T02:52:03;97140.44;;;12.01;88.55
80747;BME280;70144;50.218;14.322;2023-10-31T02:54:28;97139.75;;;12.05;86.64
80747;BME280;70144;50.218;14.322;2023-10-31T02:56:54;97145.25;;;12.05;86.59
80747;BME280;70144;50.218;14.322;2023-10-31T02:59:19;97130.63;;;12.00;87.75
80747;BME280;70144;50.218;14.322;2023-10-31T03:01:44;97130.41;;;12.06;87.54
80747;BME280;70144;50.218;14.322;2023-10-31T03:04:09;97131.31;;;12.10;87.33
80747;BME280;70144;50.218;14.322;2023-10-31T03:06:35;97129.59;;;12.05;87.17
80747;BME280;70144;50.218;14.322;2023-10-31T03:09:00;97139.41;;;12.06;87.99
80747;BME280;70144;50.218;14.322;2023-10-31T03:11:26;97139.75;;;12.05;88.65
80747;BME280;70144;50.218;14.322;2023-10-31T03:13:52;97138.94;;;12.04;87.49
80747;BME280;70144;50.218;14.322;2023-10-31T03:16:19;97141.00;;;12.07;87.31
80747;BME280;70144;50.218;14.322;2023-10-31T03:18:45;97146.97;;;12.09;86.51
80747;BME280;70144;50.218;14.322;2023-10-31T03:21:11;97154.03;;;12.10;87.97
80747;BME280;70144;50.218;14.322;2023-10-31T03:23:36;97154.03;;;12.10;87.58
80747;BME280;70144;50.218;14.322;2023-10-31T03:26:02;97169.34;;;12.11;88.34
80747;BME280;70144;50.218;14.322;2023-10-31T03:28:27;97165.78;;;12.11;87.51
80747;BME280;70144;50.218;14.322;2023-10-31T03:30:53;97178.47;;;12.15;85.92
80747;BME280;70144;50.218;14.322;2023-10-31T03:33:18;97179.63;;;12.14;88.07
80747;BME280;70144;50.218;14.322;2023-10-31T03:35:44;97175.97;;;12.10;87.33
80747;BME280;70144;50.218;14.322;2023-10-31T03:38:09;97179.97;;;12.13;87.55
80747;BME280;70144;50.218;14.322;2023-10-31T03:40:35;97181.56;;;12.14;86.58
80747;BME280;70144;50.218;14.322;2023-10-31T03:43:00;97180.31;;;12.11;87.12
80747;BME280;70144;50.218;14.322;2023-10-31T03:45:26;97179.63;;;12.14;87.56
80747;BME280;70144;50.218;14.322;2023-10-31T03:47:51;97176.75;;;12.11;87.70
80747;BME280;70144;50.218;14.322;2023-10-31T03:50:17;97179.19;;;12.12;87.49
80747;BME280;70144;50.218;14.322;2023-10-31T03:52:42;97187.03;;;12.14;87.22
80747;BME280;70144;50.218;14.322;2023-10-31T03:55:08;97180.66;;;12.10;87.19
80747;BME280;70144;50.218;14.322;2023-10-31T03:57:33;97182.00;;;12.03;87.46
80747;BME280;70144;50.218;14.322;2023-10-31T03:59:59;97186.81;;;12.07;87.71
80747;BME280;70144;50.218;14.322;2023-10-31T04:02:24;97198.69;;;12.11;86.68
80747;BME280;70144;50.218;14.322;2023-10-31T04:04:49;97193.91;;;12.08;88.21
80747;BME280;70144;50.218;14.322;2023-10-31T04:07:15;97192.28;;;12.07;88.40
80747;BME280;70144;50.218;14.322;2023-10-31T04:09:40;97202.13;;;12.08;87.78
80747;BME280;70144;50.218;14.322;2023-10-31T04:12:06;97208.63;;;12.03;88.53
80747;BME280;70144;50.218;14.322;2023-10-31T04:14:31;97207.81;;;12.02;88.17
80747;BME280;70144;50.218;14.322;2023-10-31T04:16:57;97213.78;;;12.05;87.80
80747;BME280;70144;50.218;14.322;2023-10-31T04:19:22;97213.09;;;12.08;87.92
80747;BME280;70144;50.218;14.322;2023-10-31T04:21:47;97227.00;;;12.02;88.38
80747;BME280;70144;50.218;14.322;2023-10-31T04:24:12;97225.75;;;12.00;88.82
80747;BME280;70144;50.218;14.322;2023-10-31T04:26:42;97218.34;;;12.00;88.73
80747;BME280;70144;50.218;14.322;2023-10-31T04:29:07;97220.88;;;12.06;88.94
80747;BME280;70144;50.218;14.322;2023-10-31T04:31:33;97225.44;;;12.01;88.39
80747;BME280;70144;50.218;14.322;2023-10-31T04:33:58;97223.63;;;12.06;87.75
80747;BME280;70144;50.218;14.322;2023-10-31T04:36:23;97223.81;;;12.00;88.27
80747;BME280;70144;50.218;14.322;2023-10-31T04:38:49;97222.00;;;12.05;88.28
80747;BME280;70144;50.218;14.322;2023-10-31T04:41:14;97215.28;;;12.02;88.53
80747;BME280;70144;50.218;14.322;2023-10-31T04:43:40;97205.75;;;11.99;87.00
80747;BME280;70144;50.218;14.322;2023-10-31T04:46:07;97201.28;;;11.95;88.08
80747;BME280;70144;50.218;14.322;2023-10-31T04:48:32;97209.31;;;12.00;88.25
80747;BME280;70144;50.218;14.322;2023-10-31T04:50:58;97212.66;;;12.06;87.95
80747;BME280;70144;50.218;14.322;2023-10-31T04:53:24;97221.78;;;12.10;86.73
80747;BME280;70144;50.218;14.322;2023-10-31T04:55:49;97215.03;;;12.07;87.27
80747;BME280;70144;50.218;14.322;2023-10-31T04:58:14;97213.41;;;12.06;87.33
80747;BME280;70144;50.218;14.322;2023-10-31T05:00:40;97218.81;;;12.15;87.19
80747;BME280;70144;50.218;14.322;2023-10-31T05:03:06;97227.03;;;12.15;86.24
80747;BME280;70144;50.218;14.322;2023-10-31T05:05:31;97230.25;;;12.17;86.84
80747;BME280;70144;50.218;14.322;2023-10-31T05:07:57;97224.28;;;12.15;86.19
80747;BME280;70144;50.218;14.322;2023-10-31T05:10:23;97223.84;;;12.13;86.58
80747;BME280;70144;50.218;14.322;2023-10-31T05:12:49;97225.56;;;12.05;86.86
80747;BME280;70144;50.218;14.322;2023-10-31T05:15:15;97247.81;;;12.03;87.28
80747;BME280;70144;50.218;14.322;2023-10-31T05:17:40;97256.16;;;12.07;86.85
80747;BME280;70144;50.218;14.322;2023-10-31T05:20:06;97248.97;;;12.15;87.09
80747;BME280;70144;50.218;14.322;2023-10-31T05:22:31;97246.91;;;12.12;87.03
80747;BME280;70144;50.218;14.322;2023-10-31T05:24:57;97254.22;;;12.08;86.53
80747;BME280;70144;50.218;14.322;2023-10-31T05:27:22;97256.28;;;12.11;86.40
80747;BME280;70144;50.218;14.322;2023-10-31T05:29:48;97278.34;;;12.14;87.05
80747;BME280;70144;50.218;14.322;2023-10-31T05:32:13;97285.44;;;12.15;86.39
80747;BME280;70144;50.218;14.322;2023-10-31T05:34:38;97270.34;;;12.09;86.67
80747;BME280;70144;50.218;14.322;2023-10-31T05:37:04;97275.72;;;12.06;87.63
80747;BME280;70144;50.218;14.322;2023-10-31T05:39:31;97278.44;;;12.06;87.10
80747;BME280;70144;50.218;14.322;2023-10-31T05:41:56;97287.00;;;12.04;87.18
80747;BME280;70144;50.218;14.322;2023-10-31T05:44:22;97297.84;;;12.00;87.09
80747;BME280;70144;50.218;14.322;2023-10-31T05:46:47;97298.66;;;12.01;87.39
80747;BME280;70144;50.218;14.322;2023-10-31T05:49:12;97304.13;;;12.01;86.44
80747;BME280;70144;50.218;14.322;2023-10-31T05:51:38;97308.56;;;11.93;87.82
80747;BME280;70144;50.218;14.322;2023-10-31T05:54:04;97320.97;;;11.91;88.00
80747;BME280;70144;50.218;14.322;2023-10-31T05:56:31;97338.91;;;11.88;87.99
80747;BME280;70144;50.218;14.322;2023-10-31T05:58:57;97341.06;;;11.83;88.23
80747;BME280;70144;50.218;14.322;2023-10-31T06:01:22;97356.72;;;11.82;88.66
80747;BME280;70144;50.218;14.322;2023-10-31T06:03:47;97351.69;;;11.84;88.32
80747;BME280;70144;50.218;14.322;2023-10-31T06:06:13;97352.16;;;11.86;88.55
80747;BME280;70144;50.218;14.322;2023-10-31T06:08:39;97352.41;;;11.93;87.98
80747;BME280;70144;50.218;14.322;2023-10-31T06:11:04;97346.59;;;11.95;86.83
80747;BME280;70144;50.218;14.322;2023-10-31T06:13:30;97340.59;;;12.01;87.21
80747;BME280;70144;50.218;14.322;2023-10-31T06:15:56;97347.31;;;12.04;85.92
80747;BME280;70144;50.218;14.322;2023-10-31T06:18:22;97344.13;;;12.02;87.28
80747;BME280;70144;50.218;14.322;2023-10-31T06:20:48;97356.56;;;11.99;86.89
80747;BME280;70144;50.218;14.322;2023-10-31T06:23:13;97360.03;;;12.09;86.60
80747;BME280;70144;50.218;14.322;2023-10-31T06:25:39;97369.25;;;12.04;86.13
80747;BME280;70144;50.218;14.322;2023-10-31T06:28:04;97374.06;;;12.07;86.74
80747;BME280;70144;50.218;14.322;2023-10-31T06:30:29;97382.91;;;12.13;85.95
80747;BME280;70144;50.218;14.322;2023-10-31T06:32:55;97388.69;;;12.11;86.84
80747;BME280;70144;50.218;14.322;2023-10-31T06:35:20;97395.94;;;12.16;86.27
80747;BME280;70144;50.218;14.322;2023-10-31T06:37:45;97392.69;;;12.14;86.33
80747;BME280;70144;50.218;14.322;2023-10-31T06:40:11;97403.34;;;12.15;86.70
80747;BME280;70144;50.218;14.322;2023-10-31T06:42:36;97411.91;;;12.14;86.76
80747;BME280;70144;50.218;14.322;2023-10-31T06:45:02;97417.38;;;12.14;86.11
80747;BME280;70144;50.218;14.322;2023-10-31T06:47:28;97414.44;;;12.19;86.53
80747;BME280;70144;50.218;14.322;2023-10-31T06:49:53;97425.41;;;12.19;86.18
80747;BME280;70144;50.218;14.322;2023-10-31T06:52:18;97431.72;;;12.19;87.10
80747;BME280;70144;50.218;14.322;2023-10-31T06:54:44;97425.53;;;12.22;86.91
80747;BME280;70144;50.218;14.322;2023-10-31T06:57:09;97443.13;;;12.21;87.04
80747;BME280;70144;50.218;14.322;2023-10-31T06:59:34;97452.16;;;12.22;86.37
80747;BME280;70144;50.218;14.322;2023-10-31T07:02:00;97457.13;;;12.28;85.07
80747;BME280;70144;50.218;14.322;2023-10-31T07:04:25;97446.81;;;12.25;83.72
80747;BME280;70144;50.218;14.322;2023-10-31T07:06:50;97450.34;;;12.26;84.21
80747;BME280;70144;50.218;14.322;2023-10-31T07:09:25;97454.72;;;12.27;82.85
80747;BME280;70144;50.218;14.322;2023-10-31T07:11:51;97450.44;;;12.17;80.94
80747;BME280;70144;50.218;14.322;2023-10-31T07:14:16;97458.59;;;12.26;83.03
80747;BME280;70144;50.218;14.322;2023-10-31T07:16:41;97455.84;;;12.26;82.17
80747;BME280;70144;50.218;14.322;2023-10-31T07:19:09;97460.38;;;12.22;82.01
80747;BME280;70144;50.218;14.322;2023-10-31T07:21:34;97475.84;;;12.26;82.06
80747;BME280;70144;50.218;14.322;2023-10-31T07:24:00;97467.03;;;12.21;79.81
80747;BME280;70144;50.218;14.322;2023-10-31T07:26:26;97471.84;;;12.24;80.47
80747;BME280;70144;50.218;14.322;2023-10-31T07:28:52;97465.44;;;12.20;80.97
80747;BME280;70144;50.218;14.322;2023-10-31T07:31:18;97464.75;;;12.23;81.75
80747;BME280;70144;50.218;14.322;2023-10-31T07:33:44;97464.06;;;12.26;80.44
80747;BME280;70144;50.218;14.322;2023-10-31T07:36:10;97460.69;;;12.29;80.49
80747;BME280;70144;50.218;14.322;2023-10-31T07:38:35;97472.44;;;12.29;79.59
80747;BME280;70144;50.218;14.322;2023-10-31T07:41:01;97479.41;;;12.27;80.13
80747;BME280;70144;50.218;14.322;2023-10-31T07:43:26;97498.84;;;12.34;80.42
80747;BME280;70144;50.218;14.322;2023-10-31T07:45:51;97505.16;;;12.34;79.94
80747;BME280;70144;50.218;14.322;2023-10-31T07:48:17;97518.28;;;12.29;80.45
80747;BME280;70144;50.218;14.322;2023-10-31T07:50:42;97511.84;;;12.25;79.67
80747;BME280;70144;50.218;14.322;2023-10-31T07:53:07;97531.66;;;12.30;81.54
80747;BME280;70144;50.218;14.322;2023-10-31T07:55:32;97551.97;;;12.29;81.27
80747;BME280;70144;50.218;14.322;2023-10-31T07:57:58;97551.97;;;12.29;81.00
80747;BME280;70144;50.218;14.322;2023-10-31T08:00:23;97541.69;;;12.26;80.27
80747;BME280;70144;50.218;14.322;2023-10-31T08:02:48;97540.00;;;12.13;81.44
80747;BME280;70144;50.218;14.322;2023-10-31T08:05:14;97548.63;;;12.24;81.36
80747;BME280;70144;50.218;14.322;2023-10-31T08:07:39;97551.84;;;12.26;78.49
80747;BME280;70144;50.218;14.322;2023-10-31T08:10:05;97555.53;;;12.30;80.79
80747;BME280;70144;50.218;14.322;2023-10-31T08:12:30;97531.38;;;12.23;80.32
80747;BME280;70144;50.218;14.322;2023-10-31T08:14:55;97525.34;;;12.30;78.10
80747;BME280;70144;50.218;14.322;2023-10-31T08:17:21;97511.31;;;12.31;77.34
80747;BME280;70144;50.218;14.322;2023-10-31T08:19:46;97512.63;;;12.25;77.01
80747;BME280;70144;50.218;14.322;2023-10-31T08:22:13;97526.09;;;12.39;78.80
80747;BME280;70144;50.218;14.322;2023-10-31T08:24:38;97503.97;;;12.44;76.88
80747;BME280;70144;50.218;14.322;2023-10-31T08:27:04;97503.97;;;12.44;77.49
80747;BME280;70144;50.218;14.322;2023-10-31T08:29:30;97523.06;;;12.52;78.83
80747;BME280;70144;50.218;14.322;2023-10-31T08:31:56;97544.50;;;12.59;78.11
80747;BME280;70144;50.218;14.322;2023-10-31T08:34:21;97568.53;;;12.62;79.03
80747;BME280;70144;50.218;14.322;2023-10-31T08:36:46;97569.41;;;12.54;77.90
80747;BME280;70144;50.218;14.322;2023-10-31T08:39:12;97594.56;;;12.56;77.53
80747;BME280;70144;50.218;14.322;2023-10-31T08:41:55;97595.34;;;12.57;77.42
80747;BME280;70144;50.218;14.322;2023-10-31T08:44:20;97607.81;;;12.54;77.78
80747;BME280;70144;50.218;14.322;2023-10-31T08:46:46;97615.91;;;12.50;79.08
80747;BME280;70144;50.218;14.322;2023-10-31T08:49:12;97632.91;;;12.44;79.34
80747;BME280;70144;50.218;14.322;2023-10-31T08:51:38;97626.81;;;12.38;78.63
80747;BME280;70144;50.218;14.322;2023-10-31T08:54:03;97617.94;;;12.33;77.14
80747;BME280;70144;50.218;14.322;2023-10-31T08:56:28;97613.28;;;12.33;78.03
80747;BME280;70144;50.218;14.322;2023-10-31T08:58:54;97623.28;;;12.29;75.85
80747;BME280;70144;50.218;14.322;2023-10-31T09:01:19;97627.13;;;12.37;78.29
80747;BME280;70144;50.218;14.322;2023-10-31T09:03:45;97639.28;;;12.27;75.60
80747;BME280;70144;50.218;14.322;2023-10-31T09:06:10;97648.59;;;12.35;77.09
80747;BME280;70144;50.218;14.322;2023-10-31T09:08:36;97633.63;;;12.32;76.35
80747;BME280;70144;50.218;14.322;2023-10-31T09:11:04;97656.00;;;12.43;75.79
80747;BME280;70144;50.218;14.322;2023-10-31T09:13:30;97657.13;;;12.42;74.19
80747;BME280;70144;50.218;14.322;2023-10-31T09:15:57;97655.47;;;12.49;74.88
80747;BME280;70144;50.218;14.322;2023-10-31T09:18:22;97664.22;;;12.43;74.49
80747;BME280;70144;50.218;14.322;2023-10-31T09:20:47;97677.56;;;12.53;73.79
80747;BME280;70144;50.218;14.322;2023-10-31T09:23:13;97676.59;;;12.49;71.77
80747;BME280;70144;50.218;14.322;2023-10-31T09:25:38;97672.09;;;12.44;73.92
80747;BME280;70144;50.218;14.322;2023-10-31T09:28:04;97670.00;;;12.50;71.00
80747;BME280;70144;50.218;14.322;2023-10-31T09:30:29;97680.78;;;12.55;73.82
80747;BME280;70144;50.218;14.322;2023-10-31T09:32:54;97681.19;;;12.66;72.94
80747;BME280;70144;50.218;14.322;2023-10-31T09:35:20;97689.38;;;12.74;73.95
80747;BME280;70144;50.218;14.322;2023-10-31T09:37:45;97687.09;;;12.76;73.59
80747;BME280;70144;50.218;14.322;2023-10-31T09:40:14;97674.97;;;12.77;73.08
80747;BME280;70144;50.218;14.322;2023-10-31T09:42:39;97675.44;;;12.79;72.96
80747;BME280;70144;50.218;14.322;2023-10-31T09:45:05;97669.41;;;12.86;71.14
80747;BME280;70144;50.218;14.322;2023-10-31T09:47:31;97666.47;;;12.91;72.10
80747;BME280;70144;50.218;14.322;2023-10-31T09:49:58;97660.97;;;12.91;72.53
80747;BME280;70144;50.218;14.322;2023-10-31T09:52:23;97643.13;;;12.85;72.27
80747;BME280;70144;50.218;14.322;2023-10-31T09:54:49;97653.75;;;12.86;72.14
80747;BME280;70144;50.218;14.322;2023-10-31T09:57:16;97643.19;;;12.97;72.31
80747;BME280;70144;50.218;14.322;2023-10-31T09:59:43;97636.00;;;13.05;73.51
80747;BME280;70144;50.218;14.322;2023-10-31T10:02:08;97643.38;;;13.13;70.23
80747;BME280;70144;50.218;14.322;2023-10-31T10:04:34;97636.75;;;13.14;71.81
80747;BME280;70144;50.218;14.322;2023-10-31T10:09:24;97635.88;;;13.22;73.10
80747;BME280;70144;50.218;14.322;2023-10-31T10:11:51;97646.91;;;13.34;72.16
80747;BME280;70144;50.218;14.322;2023-10-31T10:14:17;97638.97;;;13.53;70.95
80747;BME280;70144;50.218;14.322;2023-10-31T10:16:43;97645.88;;;13.71;71.38
80747;BME280;70144;50.218;14.322;2023-10-31T10:19:18;97649.78;;;13.82;70.47
80747;BME280;70144;50.218;14.322;2023-10-31T10:22:02;97636.06;;;13.94;70.29
80747;BME280;70144;50.218;14.322;2023-10-31T10:24:28;97639.72;;;13.99;69.63
80747;BME280;70144;50.218;14.322;2023-10-31T10:26:53;97642.38;;;14.07;70.16
80747;BME280;70144;50.218;14.322;2023-10-31T10:29:19;97637.00;;;14.11;70.62
80747;BME280;70144;50.218;14.322;2023-10-31T10:31:44;97634.38;;;14.26;66.64
80747;BME280;70144;50.218;14.322;2023-10-31T10:34:11;97630.38;;;14.36;67.58
80747;BME280;70144;50.218;14.322;2023-10-31T10:36:38;97614.31;;;14.38;65.85
80747;BME280;70144;50.218;14.322;2023-10-31T10:39:06;97612.91;;;14.32;68.50
80747;BME280;70144;50.218;14.322;2023-10-31T10:41:33;97625.88;;;14.44;69.72
80747;BME280;70144;50.218;14.322;2023-10-31T10:44:04;97631.28;;;14.52;65.85
80747;BME280;70144;50.218;14.322;2023-10-31T10:46:33;97628.75;;;14.47;67.96
80747;BME280;70144;50.218;14.322;2023-10-31T10:48:59;97637.00;;;14.47;67.18
80747;BME280;70144;50.218;14.322;2023-10-31T10:51:32;97648.13;;;14.51;68.10
80747;BME280;70144;50.218;14.322;2023-10-31T10:54:26;97640.91;;;14.46;67.96
80747;BME280;70144;50.218;14.322;2023-10-31T10:57:12;97628.09;;;14.38;67.88
80747;BME280;70144;50.218;14.322;2023-10-31T10:59:41;97612.03;;;14.40;69.16
80747;BME280;70144;50.218;14.322;2023-10-31T11:02:08;97614.44;;;14.42;68.32
80747;BME280;70144;50.218;14.322;2023-10-31T11:04:36;97639.50;;;14.16;68.79
80747;BME280;70144;50.218;14.322;2023-10-31T11:07:02;97658.53;;;14.21;69.15
80747;BME280;70144;50.218;14.322;2023-10-31T11:09:29;97670.03;;;14.23;70.21
80747;BME280;70144;50.218;14.322;2023-10-31T11:11:56;97673.09;;;14.09;70.27
80747;BME280;70144;50.218;14.322;2023-10-31T11:14:23;97676.31;;;14.11;69.70
80747;BME280;70144;50.218;14.322;2023-10-31T11:16:52;97708.28;;;14.16;69.66
80747;BME280;70144;50.218;14.322;2023-10-31T11:19:18;97721.59;;;14.14;69.75
80747;BME280;70144;50.218;14.322;2023-10-31T11:22:01;97694.75;;;13.99;70.67
80747;BME280;70144;50.218;14.322;2023-10-31T11:24:28;97716.75;;;13.99;73.41
80747;BME280;70144;50.218;14.322;2023-10-31T11:27:01;97726.13;;;13.98;70.66
80747;BME280;70144;50.218;14.322;2023-10-31T11:29:26;97717.06;;;13.97;70.77
80747;BME280;70144;50.218;14.322;2023-10-31T11:31:54;97718.44;;;13.91;72.53
80747;BME280;70144;50.218;14.322;2023-10-31T11:34:20;97739.59;;;13.78;71.56
80747;BME280;70144;50.218;14.322;2023-10-31T11:36:46;97759.06;;;13.73;71.80
80747;BME280;70144;50.218;14.322;2023-10-31T11:39:17;97764.28;;;13.66;71.30
80747;BME280;70144;50.218;14.322;2023-10-31T11:41:50;97770.16;;;13.65;73.48
80747;BME280;70144;50.218;14.322;2023-10-31T11:44:16;97767.13;;;13.58;72.87
80747;BME280;70144;50.218;14.322;2023-10-31T11:46:42;97748.34;;;13.60;72.66
80747;BME280;70144;50.218;14.322;2023-10-31T11:49:07;97731.84;;;13.60;73.17
80747;BME280;70144;50.218;14.322;2023-10-31T11:51:33;97722.81;;;13.59;74.11
80747;BME280;70144;50.218;14.322;2023-10-31T11:54:02;97731.28;;;13.54;73.36
80747;BME280;70144;50.218;14.322;2023-10-31T11:56:28;97720.47;;;13.49;72.43
80747;BME280;70144;50.218;14.322;2023-10-31T12:01:22;97740.66;;;13.53;74.79
80747;BME280;70144;50.218;14.322;2023-10-31T12:03:47;97747.03;;;13.45;72.86
80747;BME280;70144;50.218;14.322;2023-10-31T12:06:14;97757.75;;;13.38;71.38
80747;BME280;70144;50.218;14.322;2023-10-31T12:08:42;97775.06;;;13.38;73.62
80747;BME280;70144;50.218;14.322;2023-10-31T12:11:08;97775.56;;;13.32;72.60
80747;BME280;70144;50.218;14.322;2023-10-31T12:13:36;97774.97;;;13.26;73.17
80747;BME280;70144;50.218;14.322;2023-10-31T12:16:03;97778.41;;;13.23;74.83
80747;BME280;70144;50.218;14.322;2023-10-31T12:18:28;97782.47;;;13.17;72.96
80747;BME280;70144;50.218;14.322;2023-10-31T12:20:54;97774.28;;;13.09;72.68
80747;BME280;70144;50.218;14.322;2023-10-31T12:23:20;97771.56;;;13.00;74.80
80747;BME280;70144;50.218;14.322;2023-10-31T12:25:49;97783.16;;;13.06;74.31
80747;BME280;70144;50.218;14.322;2023-10-31T12:28:19;97792.75;;;12.99;72.74
80747;BME280;70144;50.218;14.322;2023-10-31T12:30:50;97793.34;;;13.05;72.78
80747;BME280;70144;50.218;14.322;2023-10-31T12:33:17;97786.13;;;13.01;73.93
80747;BME280;70144;50.218;14.322;2023-10-31T12:35:43;97788.66;;;13.06;74.12
80747;BME280;70144;50.218;14.322;2023-10-31T12:38:10;97786.75;;;12.97;71.93
80747;BME280;70144;50.218;14.322;2023-10-31T12:40:36;97773.03;;;12.97;71.80
80747;BME280;70144;50.218;14.322;2023-10-31T12:43:02;97775.97;;;12.92;72.98
80747;BME280;70144;50.218;14.322;2023-10-31T12:45:28;97780.19;;;12.90;73.88
80747;BME280;70144;50.218;14.322;2023-10-31T12:48:07;97775.50;;;12.90;72.38
80747;BME280;70144;50.218;14.322;2023-10-31T12:50:34;97782.88;;;12.98;72.73